createdAt,value
2019-01-27T00:00:39.211Z,84.60
2019-01-27T00:03:10.704Z,84.63
2019-01-27T00:05:47.373Z,84.65
2019-01-27T00:08:18.754Z,84.62
2019-01-27T00:10:50.353Z,84.64
2019-01-27T00:13:21.646Z,84.57
2019-01-27T00:15:53.216Z,84.59
2019-01-27T00:18:24.661Z,84.54
2019-01-27T00:20:56.096Z,84.49
2019-01-27T00:23:27.457Z,84.32
2019-01-27T00:25:58.942Z,84.38
2019-01-27T00:28:30.404Z,84.39
2019-01-27T00:31:01.880Z,84.42
2019-01-27T00:33:33.354Z,84.42
2019-01-27T00:36:04.999Z,84.39
2019-01-27T00:38:36.359Z,84.28
2019-01-27T00:41:07.849Z,84.23
2019-01-27T00:43:39.278Z,84.27
2019-01-27T00:46:10.627Z,84.29
2019-01-27T00:48:42.046Z,84.33
2019-01-27T00:51:13.423Z,84.23
2019-01-27T00:53:44.709Z,84.23
2019-01-27T00:56:15.977Z,84.18
2019-01-27T00:58:47.403Z,84.08
2019-01-27T01:01:18.837Z,83.96
2019-01-27T01:03:50.193Z,83.85
2019-01-27T01:06:21.620Z,83.80
2019-01-27T01:08:53.058Z,83.77
2019-01-27T01:11:24.474Z,83.72
2019-01-27T01:13:55.826Z,83.81
2019-01-27T01:16:27.202Z,83.72
2019-01-27T01:18:58.479Z,83.81
2019-01-27T01:21:29.834Z,83.79
2019-01-27T01:24:01.199Z,83.81
2019-01-27T01:26:32.679Z,83.67
2019-01-27T01:29:03.975Z,83.79
2019-01-27T01:31:35.452Z,83.69
2019-01-27T01:34:07.197Z,83.71
2019-01-27T01:36:38.500Z,83.66
2019-01-27T01:39:10.053Z,83.69
2019-01-27T01:41:41.404Z,83.69
2019-01-27T01:44:12.734Z,83.87
2019-01-27T01:46:44.155Z,84.02
2019-01-27T01:49:15.385Z,84.13
2019-01-27T01:51:46.693Z,84.44
2019-01-27T01:54:17.916Z,84.54
2019-01-27T01:56:49.185Z,84.49
2019-01-27T01:59:22.159Z,84.21
2019-01-27T02:01:53.585Z,84.10
2019-01-27T02:04:24.805Z,84.00
2019-01-27T02:06:56.186Z,83.86
2019-01-27T02:09:28.439Z,83.85
2019-01-27T02:11:59.777Z,83.64
2019-01-27T02:14:31.075Z,83.63
2019-01-27T02:17:03.209Z,83.49
2019-01-27T02:19:34.594Z,83.50
2019-01-27T02:22:06.114Z,83.47
2019-01-27T02:24:37.339Z,83.39
2019-01-27T02:27:08.604Z,83.32
2019-01-27T02:29:39.969Z,83.29
2019-01-27T02:32:11.377Z,83.29
2019-01-27T02:34:42.780Z,83.13
2019-01-27T02:37:14.364Z,83.08
2019-01-27T02:39:45.575Z,83.00
2019-01-27T02:42:17.130Z,83.03
2019-01-27T02:44:48.431Z,82.95
2019-01-27T02:47:19.721Z,82.95
2019-01-27T02:49:50.927Z,82.95
2019-01-27T02:52:22.211Z,82.89
2019-01-27T02:54:53.590Z,82.85
2019-01-27T02:57:24.864Z,82.99
2019-01-27T02:59:56.084Z,83.08
2019-01-27T03:02:27.421Z,83.28
2019-01-27T03:05:00.487Z,83.54
2019-01-27T03:07:36.515Z,83.68
2019-01-27T03:10:15.125Z,83.91
2019-01-27T03:12:46.555Z,83.91
2019-01-27T03:15:18.814Z,84.04
2019-01-27T03:17:50.292Z,84.07
2019-01-27T03:20:21.583Z,84.05
2019-01-27T03:22:53.122Z,83.92
2019-01-27T03:25:24.557Z,83.73
2019-01-27T03:27:55.991Z,83.73
2019-01-27T03:30:27.237Z,83.68
2019-01-27T03:32:58.577Z,83.52
2019-01-27T03:35:30.147Z,83.54
2019-01-27T03:38:01.576Z,83.53
2019-01-27T03:40:32.867Z,83.58
2019-01-27T03:43:04.452Z,83.78
2019-01-27T03:45:36.048Z,84.06
2019-01-27T03:48:10.694Z,84.08
2019-01-27T03:50:48.961Z,84.52
2019-01-27T03:53:22.176Z,84.68
2019-01-27T03:59:28.435Z,85.23
2019-01-27T04:02:18.127Z,85.47
2019-01-27T04:09:23.152Z,86.18
2019-01-27T04:11:59.559Z,86.23
2019-01-27T04:17:47.373Z,86.63
2019-01-27T04:56:46.610Z,85.90
2019-01-27T05:06:47.260Z,86.71
2019-01-27T05:19:32.303Z,87.44
2019-01-27T05:29:47.434Z,88.40
2019-01-27T05:35:57.722Z,88.29
2019-01-27T05:41:44.173Z,88.14
2019-01-27T05:44:54.314Z,88.08
2019-01-27T05:47:41.584Z,88.06
2019-01-27T05:50:34.249Z,87.94
2019-01-27T05:53:29.583Z,87.97
2019-01-27T05:59:19.499Z,87.81
2019-01-27T06:02:06.816Z,87.86
2019-01-27T06:04:43.214Z,87.81
2019-01-27T06:07:22.000Z,87.76
2019-01-27T06:09:59.859Z,87.78
2019-01-27T06:12:42.596Z,87.74
2019-01-27T06:15:19.958Z,87.73
2019-01-27T06:18:01.138Z,87.75
2019-01-27T06:21:17.054Z,87.84
2019-01-27T06:24:02.166Z,87.86
2019-01-27T06:26:41.938Z,87.83
2019-01-27T06:29:23.519Z,87.77
2019-01-27T06:32:14.343Z,87.69
2019-01-27T06:34:46.460Z,87.65
2019-01-27T06:37:30.555Z,87.71
2019-01-27T06:40:16.561Z,87.72
2019-01-27T06:43:02.819Z,87.54
2019-01-27T06:45:39.684Z,87.47
2019-01-27T06:48:13.089Z,87.47
2019-01-27T06:50:44.720Z,87.39
2019-01-27T06:53:33.804Z,87.27
2019-01-27T06:56:11.808Z,87.17
2019-01-27T06:59:06.689Z,87.13
2019-01-27T07:02:57.818Z,87.09
2019-01-27T07:05:28.751Z,87.08
2019-01-27T07:12:24.312Z,87.27
2019-01-27T07:21:35.404Z,87.63
2019-01-27T07:24:16.424Z,87.67
2019-01-27T07:27:05.926Z,87.63
2019-01-27T07:30:42.784Z,87.57
2019-01-27T07:33:43.262Z,87.55
2019-01-27T07:40:59.847Z,87.29
2019-01-27T07:43:52.723Z,87.24
2019-01-27T07:51:36.378Z,86.89
2019-01-27T07:54:03.702Z,86.73
2019-01-27T07:56:38.926Z,86.64
2019-01-27T08:31:33.225Z,86.69
2019-01-27T09:30:47.468Z,82.00
2019-01-27T09:33:43.172Z,81.63
2019-01-27T09:36:51.775Z,80.82
2019-01-27T09:39:48.217Z,80.51
2019-01-27T09:43:07.472Z,80.71
2019-01-27T09:46:05.482Z,79.44
2019-01-27T09:49:00.318Z,76.52
2019-01-27T09:51:43.142Z,76.99
2019-01-27T09:54:36.198Z,76.14
2019-01-27T09:57:21.211Z,75.94
2019-01-27T09:59:54.427Z,76.37
2019-01-27T10:02:34.831Z,75.46
2019-01-27T10:05:16.843Z,74.01
2019-01-27T10:07:52.963Z,75.40
2019-01-27T10:10:26.044Z,75.85
2019-01-27T10:13:16.527Z,75.18
2019-01-27T10:16:04.741Z,74.11
2019-01-27T10:18:52.996Z,74.56
2019-01-27T10:30:38.458Z,74.36
2019-01-27T10:33:09.866Z,75.33
2019-01-27T10:35:45.826Z,75.69
2019-01-27T10:38:21.899Z,76.20
2019-01-27T10:41:05.177Z,76.82
2019-01-27T10:43:47.721Z,76.48
2019-01-27T10:46:23.656Z,77.03
2019-01-27T10:48:56.823Z,77.62
2019-01-27T10:51:36.019Z,77.28
2019-01-27T10:54:09.632Z,77.52
2019-01-27T10:56:56.615Z,78.24
2019-01-27T10:59:38.516Z,77.91
2019-01-27T11:02:16.017Z,78.62
2019-01-27T11:04:56.845Z,78.54
2019-01-27T11:07:36.244Z,78.63
2019-01-27T11:10:18.010Z,79.12
2019-01-27T11:12:58.643Z,79.23
2019-01-27T11:15:33.443Z,78.69
2019-01-27T11:18:12.872Z,79.22
2019-01-27T11:20:53.352Z,79.15
2019-01-27T11:23:30.350Z,79.03
2019-01-27T11:26:12.950Z,78.82
2019-01-27T11:29:09.242Z,78.79
2019-01-27T11:31:51.943Z,78.79
2019-01-27T11:34:26.787Z,78.33
2019-01-27T11:37:07.883Z,78.25
2019-01-27T11:50:32.550Z,76.68
2019-01-27T11:53:10.176Z,74.62
2019-01-27T11:55:41.661Z,73.93
2019-01-27T11:58:13.306Z,71.92
2019-01-27T12:00:46.634Z,72.32
2019-01-27T12:03:18.036Z,72.79
2019-01-27T12:05:49.711Z,73.79
2019-01-27T12:08:21.263Z,72.46
2019-01-27T12:10:52.916Z,73.17
2019-01-27T12:13:24.704Z,73.13
2019-01-27T12:15:56.065Z,72.55
2019-01-27T12:18:27.606Z,72.47
2019-01-27T12:21:00.796Z,72.47
2019-01-27T12:23:32.352Z,72.19
2019-01-27T12:26:03.895Z,70.97
2019-01-27T12:28:35.428Z,71.18
2019-01-27T12:31:06.891Z,71.55
2019-01-27T12:33:38.381Z,70.71
2019-01-27T12:36:09.889Z,69.26
2019-01-27T12:38:41.361Z,70.03
2019-01-27T12:41:13.037Z,69.25
2019-01-27T12:43:44.644Z,69.04
2019-01-27T12:46:16.384Z,69.05
2019-01-27T12:48:47.939Z,69.98
2019-01-27T12:51:21.041Z,69.94
2019-01-27T12:53:52.443Z,70.01
2019-01-27T12:56:23.962Z,71.01
2019-01-27T12:58:55.609Z,70.89
2019-01-27T13:01:27.205Z,71.39
2019-01-27T13:03:58.890Z,71.56
2019-01-27T13:06:31.938Z,71.58
2019-01-27T13:09:08.465Z,70.70
2019-01-27T13:11:40.155Z,70.88
2019-01-27T13:14:17.793Z,70.22
2019-01-27T13:16:55.937Z,70.46
2019-01-27T13:19:27.399Z,71.14
2019-01-27T13:21:58.727Z,71.52
2019-01-27T13:24:30.215Z,71.14
2019-01-27T13:27:06.319Z,71.76
2019-01-27T13:29:37.851Z,72.03
2019-01-27T13:32:09.438Z,71.75
2019-01-27T13:34:42.028Z,72.09
2019-01-27T13:37:13.840Z,72.21
2019-01-27T13:42:45.619Z,72.17
2019-01-27T13:45:31.208Z,71.49
2019-01-27T13:48:09.091Z,71.45
2019-01-27T13:50:44.563Z,71.81
2019-01-27T13:53:18.519Z,71.46
2019-01-27T13:55:56.226Z,71.14
2019-01-27T13:58:30.130Z,71.46
2019-01-27T14:01:03.641Z,71.12
2019-01-27T14:03:35.370Z,70.82
2019-01-27T14:06:07.128Z,70.51
2019-01-27T14:08:38.860Z,70.66
2019-01-27T14:11:10.491Z,70.64
2019-01-27T14:13:41.896Z,70.01
2019-01-27T14:16:13.451Z,70.40
2019-01-27T14:18:44.777Z,70.49
2019-01-27T14:21:16.830Z,70.19
2019-01-27T14:23:48.667Z,70.61
2019-01-27T14:26:20.238Z,70.25
2019-01-27T14:28:51.758Z,70.99
2019-01-27T14:31:25.876Z,71.06
2019-01-27T14:33:58.851Z,71.03
2019-01-27T14:36:37.395Z,70.89
2019-01-27T14:39:26.878Z,70.99
2019-01-27T14:42:00.575Z,70.92
2019-01-27T14:44:35.314Z,71.03
2019-01-27T14:47:15.313Z,71.37
2019-01-27T14:49:47.329Z,71.58
2019-01-27T14:52:20.515Z,71.25
2019-01-27T14:54:54.753Z,71.54
2019-01-27T14:57:27.988Z,71.84
2019-01-27T15:00:01.058Z,71.76
2019-01-27T15:02:37.395Z,71.61
2019-01-27T15:05:16.264Z,72.33
2019-01-27T15:08:03.358Z,72.62
2019-01-27T15:10:48.331Z,72.36
2019-01-27T15:13:24.077Z,73.14
2019-01-27T15:16:26.414Z,72.46
2019-01-27T15:19:10.467Z,72.44
2019-01-27T15:21:46.404Z,72.93
2019-01-27T15:24:20.650Z,73.64
2019-01-27T15:26:55.326Z,73.92
2019-01-27T15:29:27.764Z,74.42
2019-01-27T15:31:59.393Z,74.57
2019-01-27T15:34:32.610Z,75.01
2019-01-27T15:40:15.326Z,75.08
2019-01-27T15:42:47.205Z,75.17
2019-01-27T15:45:32.309Z,75.62
2019-01-27T15:48:04.109Z,75.14
2019-01-27T15:50:39.855Z,76.17
2019-01-27T15:53:33.099Z,75.45
2019-01-27T15:56:49.196Z,75.77
2019-01-27T16:05:35.696Z,75.62
2019-01-27T16:08:09.041Z,75.99
2019-01-27T16:15:30.118Z,75.50
2019-01-27T16:17:19.815Z,76.09
2019-01-27T16:19:51.508Z,76.27
2019-01-27T16:22:23.162Z,76.60
2019-01-27T16:24:54.861Z,76.58
2019-01-27T16:27:32.762Z,77.60
2019-01-27T16:30:09.025Z,77.97
2019-01-27T16:32:41.804Z,78.18
2019-01-27T16:35:17.145Z,78.44
2019-01-27T16:37:50.435Z,78.09
2019-01-27T16:40:23.910Z,77.90
2019-01-27T16:43:04.670Z,77.89
2019-01-27T16:45:42.559Z,77.68
2019-01-27T16:48:27.362Z,77.34
2019-01-27T16:51:00.643Z,77.63
2019-01-27T16:53:41.233Z,78.00
2019-01-27T16:56:12.876Z,79.03
2019-01-27T16:58:44.519Z,78.93
2019-01-27T17:01:17.734Z,79.17
2019-01-27T17:03:52.110Z,79.77
2019-01-27T17:06:24.915Z,80.19
2019-01-27T17:08:59.840Z,80.59
2019-01-27T17:11:31.678Z,80.79
2019-01-27T17:14:05.110Z,80.93
2019-01-27T17:16:38.522Z,81.03
2019-01-27T17:19:12.141Z,81.21
2019-01-27T17:21:50.811Z,81.60
2019-01-27T17:24:49.684Z,82.04
2019-01-27T17:27:25.629Z,82.49
2019-01-27T17:30:02.662Z,83.11
2019-01-27T17:32:44.925Z,83.45
2019-01-27T17:35:26.345Z,83.68
2019-01-27T17:38:02.523Z,83.99
2019-01-27T17:40:58.101Z,84.05
2019-01-27T17:43:39.423Z,84.16
2019-01-27T17:46:07.073Z,84.42
2019-01-27T17:48:39.263Z,84.38
2019-01-27T17:51:13.590Z,83.93
2019-01-27T17:53:50.807Z,83.84
2019-01-27T17:56:24.151Z,83.86
2019-01-27T17:59:11.156Z,83.65
2019-01-27T18:01:50.572Z,83.64
2019-01-27T18:07:44.708Z,84.25
2019-01-27T18:10:29.023Z,84.73
2019-01-27T18:13:07.406Z,85.13
2019-01-27T18:15:43.735Z,85.30
2019-01-27T18:18:36.371Z,85.35
2019-01-27T18:21:02.591Z,85.44
2019-01-27T18:23:44.965Z,85.57
2019-01-27T18:26:50.659Z,85.54
2019-01-27T18:29:22.287Z,85.06
2019-01-27T18:31:58.382Z,85.35
2019-01-27T18:34:50.250Z,84.53
2019-01-27T18:37:44.520Z,84.54
2019-01-27T18:40:50.223Z,84.66
2019-01-27T18:43:23.008Z,84.01
2019-01-27T18:46:02.123Z,83.32
2019-01-27T18:48:36.369Z,83.20
2019-01-27T18:54:11.064Z,82.10
2019-01-27T18:56:54.394Z,82.08
2019-01-27T18:59:45.498Z,82.17
2019-01-27T19:02:34.926Z,80.75
2019-01-27T19:05:29.363Z,81.61
2019-01-27T19:08:19.896Z,81.31
2019-01-27T19:11:05.385Z,79.69
2019-01-27T19:13:34.724Z,79.26
2019-01-27T19:16:16.312Z,76.04
2019-01-27T19:19:00.335Z,76.02
2019-01-27T19:21:40.334Z,74.99
2019-01-27T19:24:16.249Z,75.37
2019-01-27T19:27:14.243Z,75.15
2019-01-27T19:30:04.415Z,73.96
2019-01-27T19:32:45.102Z,74.32
2019-01-27T19:35:18.463Z,73.62
2019-01-27T19:37:59.218Z,74.19
2019-01-27T19:40:30.732Z,73.21
2019-01-27T19:43:09.930Z,73.74
2019-01-27T19:45:57.004Z,74.13
2019-01-27T19:48:45.491Z,74.44
2019-01-27T19:51:42.992Z,74.85
2019-01-27T19:54:19.517Z,72.56
2019-01-27T19:57:04.470Z,71.92
2019-01-27T19:59:48.621Z,71.97
2019-01-27T20:02:21.960Z,73.23
2019-01-27T20:04:56.623Z,73.10
2019-01-27T20:07:47.614Z,72.53
2019-01-27T20:10:27.095Z,73.03
2019-01-27T20:13:08.738Z,72.02
2019-01-27T20:15:41.499Z,72.52
2019-01-27T20:18:19.822Z,72.19
2019-01-27T20:21:04.416Z,71.93
2019-01-27T20:23:52.774Z,71.32
2019-01-27T20:26:26.067Z,70.99
2019-01-27T20:29:04.871Z,71.67
2019-01-27T20:31:41.236Z,71.73
2019-01-27T20:34:15.804Z,72.45
2019-01-27T20:36:47.400Z,72.09
2019-01-27T20:39:26.314Z,73.31
2019-01-27T20:41:59.661Z,73.15
2019-01-27T20:44:35.751Z,73.03
2019-01-27T20:47:10.199Z,73.88
2019-01-27T20:49:49.173Z,73.29
2019-01-27T20:52:25.459Z,74.07
2019-01-27T20:55:01.420Z,74.47
2019-01-27T20:57:38.526Z,73.95
2019-01-27T21:00:24.234Z,73.71
2019-01-27T21:03:01.228Z,73.62
2019-01-27T21:05:40.451Z,73.69
2019-01-27T21:08:19.627Z,73.73
2019-01-27T21:10:52.932Z,73.61
2019-01-27T21:13:26.361Z,72.90
2019-01-27T21:16:11.641Z,73.41
2019-01-27T21:18:44.742Z,73.95
2019-01-27T21:21:16.425Z,73.95
2019-01-27T21:23:48.005Z,74.89
2019-01-27T21:26:19.793Z,75.03
2019-01-27T21:29:24.157Z,74.93
2019-01-27T21:31:57.192Z,74.78
2019-01-27T21:34:29.243Z,74.90
2019-01-27T21:37:00.754Z,75.18
2019-01-27T21:39:32.453Z,75.25
2019-01-27T21:42:04.071Z,75.42
2019-01-27T21:44:35.874Z,75.85
2019-01-27T21:47:07.233Z,76.12
2019-01-27T21:49:38.884Z,76.04
2019-01-27T21:52:10.419Z,75.75
2019-01-27T21:54:41.964Z,75.72
2019-01-27T21:57:13.406Z,76.06
2019-01-27T21:59:45.139Z,76.24
2019-01-27T22:02:16.665Z,76.01
2019-01-27T22:04:54.338Z,75.79
2019-01-27T22:07:25.743Z,75.41
2019-01-27T22:09:57.191Z,75.26
2019-01-27T22:12:28.623Z,75.46
2019-01-27T22:15:00.240Z,74.96
2019-01-27T22:17:31.849Z,75.19
2019-01-27T22:20:03.539Z,74.17
2019-01-27T22:22:41.562Z,74.39
2019-01-27T22:25:19.312Z,74.28
2019-01-27T22:27:52.492Z,74.73
2019-01-27T22:30:24.365Z,75.41
2019-01-27T22:32:56.022Z,74.22
2019-01-27T22:35:27.625Z,74.31
2019-01-27T22:37:59.408Z,74.22
2019-01-27T22:40:30.883Z,74.61
2019-01-27T22:43:02.421Z,74.50
2019-01-27T22:45:34.007Z,74.21
2019-01-27T22:48:05.398Z,74.18
2019-01-27T22:50:36.930Z,74.65
2019-01-27T22:53:08.625Z,74.77
2019-01-27T22:55:40.158Z,74.67
2019-01-27T22:58:11.504Z,75.38
2019-01-27T23:00:52.172Z,75.06
2019-01-27T23:03:24.699Z,75.21
2019-01-27T23:05:56.229Z,75.45
2019-01-27T23:08:27.622Z,75.46
2019-01-27T23:10:59.098Z,76.36
2019-01-27T23:13:30.582Z,77.19
2019-01-27T23:16:02.344Z,76.39
2019-01-27T23:18:33.818Z,77.15
2019-01-27T23:21:05.761Z,76.74
2019-01-27T23:23:37.238Z,76.12
2019-01-27T23:26:08.924Z,75.55
2019-01-27T23:28:40.524Z,75.10
2019-01-27T23:31:12.340Z,75.29
2019-01-27T23:33:43.987Z,74.86
2019-01-27T23:36:15.673Z,74.26
2019-01-27T23:38:47.061Z,74.79
2019-01-27T23:41:18.467Z,75.05
2019-01-27T23:43:49.909Z,75.38
2019-01-27T23:46:21.506Z,74.90
2019-01-27T23:48:52.900Z,75.34
2019-01-27T23:51:24.309Z,75.56
2019-01-27T23:53:55.824Z,75.16
2019-01-27T23:56:27.372Z,75.26
2019-01-27T23:58:59.026Z,75.72
